Time;durP1;ratioP1;P1;durP2;ratioP2;P2;SDS_P1;SDS_P2;PMS_P1;PMS_P2;Temp;Humidity;BMP_temperature;BMP_pressure;BME280_temperature;BME280_humidity;BME280_pressure;Samples;Min_cycle;Max_cycle;Signal;HPM_P1;HPM_P2
2021/11/16 00:02:16;;;;;;;25.80;16.80;;;;;;;;;;5036493;28;20107;-78
2021/11/16 00:04:42;;;;;;;29.50;18.73;;;;;;;;;;5034032;28;20037;-78
2021/11/16 00:07:09;;;;;;;31.73;20.25;;;;;;;;;;5062871;28;20031;-78
2021/11/16 00:09:35;;;;;;;28.83;18.98;;;;;;;;;;5073193;28;20106;-78
2021/11/16 00:12:01;;;;;;;26.70;18.05;;;;;;;;;;5059973;28;20043;-78
2021/11/16 00:14:29;;;;;;;26.58;18.00;;;;;;;;;;5053470;28;20508;-78
2021/11/16 00:16:56;;;;;;;26.20;17.35;;;;;;;;;;5042279;28;20071;-78
2021/11/16 00:19:22;;;;;;;26.75;18.15;;;;;;;;;;5033183;28;20053;-78
2021/11/16 00:21:49;;;;;;;24.67;17.30;;;;;;;;;;5040247;28;20060;-78
2021/11/16 00:24:19;;;;;;;25.38;18.88;;;;;;;;;;5053062;28;20043;-78
2021/11/16 00:26:46;;;;;;;27.52;18.80;;;;;;;;;;5052280;28;20029;-77
2021/11/16 00:29:12;;;;;;;27.75;18.85;;;;;;;;;;5039388;28;20037;-78
2021/11/16 00:31:39;;;;;;;26.83;18.95;;;;;;;;;;5032802;28;20079;-78
2021/11/16 00:34:05;;;;;;;29.25;19.70;;;;;;;;;;5050864;28;20112;-78
2021/11/16 00:36:32;;;;;;;31.25;19.52;;;;;;;;;;5052740;28;20028;-78
2021/11/16 00:38:58;;;;;;;29.05;20.38;;;;;;;;;;5040914;28;20041;-78
2021/11/16 00:41:25;;;;;;;30.25;19.52;;;;;;;;;;5039636;28;20033;-78
2021/11/16 00:43:51;;;;;;;28.85;21.05;;;;;;;;;;5050041;28;20044;-78
2021/11/16 00:46:17;;;;;;;32.63;20.83;;;;;;;;;;5038629;28;20056;-78
2021/11/16 00:48:44;;;;;;;29.00;20.83;;;;;;;;;;5050507;28;20116;-78
2021/11/16 00:51:10;;;;;;;36.63;22.65;;;;;;;;;;5047359;28;20029;-78
2021/11/16 00:53:37;;;;;;;30.05;21.08;;;;;;;;;;5041827;28;20037;-78
2021/11/16 00:56:05;;;;;;;34.75;22.15;;;;;;;;;;5052339;28;20025;-78
2021/11/16 00:58:31;;;;;;;28.25;20.58;;;;;;;;;;5052284;28;20087;-78
2021/11/16 01:00:57;;;;;;;34.25;19.88;;;;;;;;;;5052166;28;20075;-78
2021/11/16 01:03:24;;;;;;;29.85;19.73;;;;;;;;;;5051800;28;20033;-78
2021/11/16 01:05:51;;;;;;;30.83;20.70;;;;;;;;;;5041592;28;20120;-78
2021/11/16 01:08:17;;;;;;;25.25;18.52;;;;;;;;;;5047459;28;20044;-78
2021/11/16 01:10:43;;;;;;;29.48;20.60;;;;;;;;;;5052014;28;20025;-78
2021/11/16 01:13:10;;;;;;;37.65;23.00;;;;;;;;;;5051445;28;20131;-78
2021/11/16 01:15:37;;;;;;;29.58;21.00;;;;;;;;;;5052258;28;20029;-78
2021/11/16 01:18:04;;;;;;;35.50;23.10;;;;;;;;;;5051281;28;20040;-79
2021/11/16 01:20:30;;;;;;;31.00;20.73;;;;;;;;;;5052052;28;20032;-78
2021/11/16 01:22:57;;;;;;;29.88;21.23;;;;;;;;;;5051320;28;20463;-78
2021/11/16 01:25:24;;;;;;;35.47;22.83;;;;;;;;;;5051902;28;20024;-78
2021/11/16 01:27:51;;;;;;;29.63;20.25;;;;;;;;;;5051242;28;20056;-78
2021/11/16 01:30:21;;;;;;;29.65;19.13;;;;;;;;;;5051810;28;20025;-78
2021/11/16 01:33:11;;;;;;;32.38;19.85;;;;;;;;;;5051440;28;20032;-78
2021/11/16 01:35:35;;;;;;;33.20;22.40;;;;;;;;;;5051373;28;20028;-78
2021/11/16 01:38:01;;;;;;;29.77;19.60;;;;;;;;;;5042528;28;20041;-78
2021/11/16 01:40:27;;;;;;;30.38;20.30;;;;;;;;;;5043288;28;20024;-78
2021/11/16 01:42:54;;;;;;;37.28;21.63;;;;;;;;;;5041700;28;20037;-78
2021/11/16 01:45:20;;;;;;;31.40;21.60;;;;;;;;;;5036892;28;20037;-78
2021/11/16 01:47:47;;;;;;;30.95;20.55;;;;;;;;;;5040251;28;20100;-78
2021/11/16 01:50:14;;;;;;;38.97;22.05;;;;;;;;;;5031497;28;20049;-78
2021/11/16 01:52:40;;;;;;;30.95;20.75;;;;;;;;;;5031411;28;20037;-78
2021/11/16 01:55:08;;;;;;;32.20;22.08;;;;;;;;;;5045488;28;20061;-78
2021/11/16 01:57:35;;;;;;;29.38;22.50;;;;;;;;;;5040012;28;20033;-78
2021/11/16 02:00:01;;;;;;;31.98;21.67;;;;;;;;;;5042615;28;20033;-78
2021/11/16 02:02:27;;;;;;;36.17;23.60;;;;;;;;;;5049120;28;20104;-79
2021/11/16 02:04:53;;;;;;;36.42;24.45;;;;;;;;;;5051034;28;20485;-78
2021/11/16 02:07:19;;;;;;;35.35;23.65;;;;;;;;;;5034522;28;20040;-79
2021/11/16 02:09:45;;;;;;;34.83;23.00;;;;;;;;;;5031594;28;20033;-79
2021/11/16 02:12:11;;;;;;;30.35;21.52;;;;;;;;;;5030239;28;20029;-78
2021/11/16 02:14:37;;;;;;;37.67;25.23;;;;;;;;;;5031436;28;20112;-78
2021/11/16 02:17:04;;;;;;;35.95;23.08;;;;;;;;;;5039525;28;20364;-78
2021/11/16 02:19:31;;;;;;;33.63;22.20;;;;;;;;;;5042789;28;20103;-78
2021/11/16 02:21:57;;;;;;;30.02;21.27;;;;;;;;;;5030261;28;20029;-79
2021/11/16 02:24:23;;;;;;;32.58;21.60;;;;;;;;;;5031191;28;20040;-78
2021/11/16 02:26:50;;;;;;;33.00;23.48;;;;;;;;;;5030268;28;20029;-78
2021/11/16 02:29:16;;;;;;;39.05;26.73;;;;;;;;;;5031198;28;20037;-79
2021/11/16 02:31:44;;;;;;;29.75;21.70;;;;;;;;;;5030349;28;20087;-78
2021/11/16 02:34:11;;;;;;;35.85;24.52;;;;;;;;;;5031061;28;20030;-79
2021/11/16 02:36:37;;;;;;;33.63;21.45;;;;;;;;;;5030197;28;20134;-78
2021/11/16 02:39:06;;;;;;;42.35;26.05;;;;;;;;;;5030552;28;20136;-78
2021/11/16 02:41:34;;;;;;;32.15;22.35;;;;;;;;;;5030282;28;20613;-78
2021/11/16 02:44:01;;;;;;;40.45;25.90;;;;;;;;;;5030685;28;20034;-79
2021/11/16 02:46:27;;;;;;;33.28;24.50;;;;;;;;;;5030345;28;20026;-79
2021/11/16 02:48:53;;;;;;;40.08;25.80;;;;;;;;;;5029864;28;20064;-79
2021/11/16 02:51:20;;;;;;;34.88;26.10;;;;;;;;;;5030166;28;20040;-78
2021/11/16 02:53:46;;;;;;;48.15;29.25;;;;;;;;;;5029945;28;20072;-78
2021/11/16 02:56:12;;;;;;;52.60;30.27;;;;;;;;;;5030115;28;20030;-79
2021/11/16 02:58:38;;;;;;;44.15;28.17;;;;;;;;;;5029605;28;20042;-78
2021/11/16 03:01:07;;;;;;;43.10;29.45;;;;;;;;;;5030239;28;20033;-79
2021/11/16 03:03:33;;;;;;;43.05;28.90;;;;;;;;;;5029873;28;20041;-80
2021/11/16 03:05:59;;;;;;;43.88;28.30;;;;;;;;;;5050011;28;20025;-79
2021/11/16 03:08:27;;;;;;;39.35;27.20;;;;;;;;;;5048785;28;20066;-78
2021/11/16 03:10:58;;;;;;;40.90;28.25;;;;;;;;;;5049949;28;20074;-79
2021/11/16 03:13:25;;;;;;;46.72;29.55;;;;;;;;;;5046270;28;20030;-79
2021/11/16 03:15:52;;;;;;;42.25;28.27;;;;;;;;;;5029308;28;20036;-79
2021/11/16 03:18:18;;;;;;;42.70;28.83;;;;;;;;;;5033793;28;20049;-78
2021/11/16 03:20:44;;;;;;;58.10;34.17;;;;;;;;;;5029589;28;20037;-79
2021/11/16 03:23:16;;;;;;;41.78;28.33;;;;;;;;;;5029737;28;20041;-79
2021/11/16 03:25:49;;;;;;;42.53;29.25;;;;;;;;;;5019916;28;20039;-79
2021/11/16 03:28:16;;;;;;;43.20;30.80;;;;;;;;;;5029797;28;20034;-79
2021/11/16 03:30:43;;;;;;;61.92;34.50;;;;;;;;;;5046709;28;20031;-79
2021/11/16 03:33:10;;;;;;;48.85;33.28;;;;;;;;;;5049529;28;20044;-79
2021/11/16 03:35:36;;;;;;;45.60;30.35;;;;;;;;;;5032073;28;20060;-78
2021/11/16 03:38:03;;;;;;;58.83;34.15;;;;;;;;;;5041863;28;20037;-78
2021/11/16 03:40:31;;;;;;;51.17;34.05;;;;;;;;;;5033173;28;20094;-78
2021/11/16 03:42:57;;;;;;;53.17;33.25;;;;;;;;;;5029976;28;20140;-79
2021/11/16 03:45:24;;;;;;;51.38;31.70;;;;;;;;;;5029462;28;20025;-78
2021/11/16 03:47:50;;;;;;;48.25;31.67;;;;;;;;;;5029839;28;20599;-79
2021/11/16 03:50:18;;;;;;;51.83;31.92;;;;;;;;;;5029208;28;20104;-78
2021/11/16 03:52:49;;;;;;;51.33;34.13;;;;;;;;;;5030063;28;20022;-79
2021/11/16 03:55:15;;;;;;;43.28;29.25;;;;;;;;;;5029057;28;20116;-79
2021/11/16 03:57:41;;;;;;;44.45;29.95;;;;;;;;;;5029698;28;20092;-79
2021/11/16 04:00:13;;;;;;;40.83;29.27;;;;;;;;;;5033496;28;20041;-79
2021/11/16 04:02:39;;;;;;;45.65;30.52;;;;;;;;;;5049463;28;20771;-78
2021/11/16 04:05:05;;;;;;;45.75;30.58;;;;;;;;;;5047696;28;20112;-79
2021/11/16 04:07:32;;;;;;;47.92;32.78;;;;;;;;;;5037661;28;20391;-79
2021/11/16 04:09:58;;;;;;;44.08;28.73;;;;;;;;;;5029409;28;20038;-78
2021/11/16 04:12:24;;;;;;;46.00;31.10;;;;;;;;;;5047852;28;20070;-79
2021/11/16 04:14:50;;;;;;;45.72;30.02;;;;;;;;;;5049464;28;20041;-79
2021/11/16 04:17:17;;;;;;;45.65;29.90;;;;;;;;;;5032638;28;20112;-79
2021/11/16 04:19:43;;;;;;;53.47;34.08;;;;;;;;;;5028990;28;20063;-78
2021/11/16 04:22:10;;;;;;;45.30;30.45;;;;;;;;;;5029172;28;20034;-79
2021/11/16 04:24:36;;;;;;;48.65;32.55;;;;;;;;;;5029261;28;20041;-79
2021/11/16 04:27:03;;;;;;;47.25;31.85;;;;;;;;;;5029512;28;20363;-79
2021/11/16 04:29:29;;;;;;;48.10;34.15;;;;;;;;;;5032916;28;20048;-79
2021/11/16 04:31:56;;;;;;;51.92;33.47;;;;;;;;;;5032186;28;20044;-79
2021/11/16 04:34:22;;;;;;;52.55;35.03;;;;;;;;;;5033093;28;20038;-79
2021/11/16 04:36:48;;;;;;;53.65;36.75;;;;;;;;;;5032305;28;20433;-79
2021/11/16 04:39:15;;;;;;;59.35;34.53;;;;;;;;;;5033228;28;20037;-79
2021/11/16 04:41:43;;;;;;;54.28;33.42;;;;;;;;;;5032435;28;20378;-79
2021/11/16 04:44:09;;;;;;;49.50;33.17;;;;;;;;;;5033016;28;20067;-79
2021/11/16 04:46:36;;;;;;;54.15;38.47;;;;;;;;;;5032068;28;20022;-79
2021/11/16 05:04:40;;;;;;;69.50;44.38;;;;;;;;;;5032295;28;20040;-79
2021/11/16 05:07:12;;;;;;;65.40;43.80;;;;;;;;;;5031289;28;20053;-79
2021/11/16 05:09:39;;;;;;;93.32;52.63;;;;;;;;;;5036411;28;20036;-79
2021/11/16 05:12:05;;;;;;;65.20;44.63;;;;;;;;;;5031721;28;20033;-78
2021/11/16 05:14:31;;;;;;;74.30;45.60;;;;;;;;;;5032029;28;20044;-79
2021/11/16 05:16:57;;;;;;;71.40;47.50;;;;;;;;;;5031817;28;20592;-79
2021/11/16 05:19:23;;;;;;;81.05;48.85;;;;;;;;;;5028502;28;20061;-79
2021/11/16 05:21:50;;;;;;;78.43;46.40;;;;;;;;;;5031701;28;20032;-79
2021/11/16 05:24:16;;;;;;;74.90;46.95;;;;;;;;;;5032713;28;20040;-79
2021/11/16 05:26:44;;;;;;;69.30;45.22;;;;;;;;;;5031383;28;20732;-79
2021/11/16 05:29:10;;;;;;;71.10;45.58;;;;;;;;;;5032087;28;20076;-79
2021/11/16 05:31:36;;;;;;;94.43;52.22;;;;;;;;;;5031470;28;20602;-79
2021/11/16 05:34:02;;;;;;;76.05;50.17;;;;;;;;;;5032009;28;20033;-79
2021/11/16 05:36:28;;;;;;;73.78;47.55;;;;;;;;;;5032143;28;20058;-79
2021/11/16 05:38:54;;;;;;;70.95;46.35;;;;;;;;;;5049717;28;20041;-79
2021/11/16 05:41:21;;;;;;;69.18;46.78;;;;;;;;;;5052070;28;20025;-79
2021/11/16 05:43:47;;;;;;;79.15;51.40;;;;;;;;;;5037221;28;20041;-79
2021/11/16 05:46:18;;;;;;;84.22;55.03;;;;;;;;;;5039826;28;20030;-79
2021/11/16 05:48:44;;;;;;;80.60;48.75;;;;;;;;;;5040570;28;20043;-79
2021/11/16 05:51:10;;;;;;;74.78;51.28;;;;;;;;;;5043552;28;20036;-79
2021/11/16 05:53:38;;;;;;;76.90;48.35;;;;;;;;;;5049845;28;20098;-79
2021/11/16 05:56:04;;;;;;;69.53;45.38;;;;;;;;;;5047397;28;20057;-79
2021/11/16 05:58:31;;;;;;;82.22;51.42;;;;;;;;;;5031609;28;20033;-79
2021/11/16 06:00:57;;;;;;;81.53;53.63;;;;;;;;;;5039325;28;20669;-79
2021/11/16 06:03:23;;;;;;;90.60;51.75;;;;;;;;;;5042750;28;20214;-79
2021/11/16 06:05:49;;;;;;;82.47;50.88;;;;;;;;;;5039078;28;20108;-79
2021/11/16 06:08:25;;;;;;;86.97;52.72;;;;;;;;;;5037517;28;20508;-78
2021/11/16 06:10:51;;;;;;;89.35;57.78;;;;;;;;;;5030606;28;20152;-78
2021/11/16 06:13:17;;;;;;;80.30;52.42;;;;;;;;;;5031549;28;20144;-78
2021/11/16 06:15:43;;;;;;;80.00;50.67;;;;;;;;;;5030103;28;20025;-78
2021/11/16 06:18:09;;;;;;;82.45;51.15;;;;;;;;;;5023701;28;20072;-79
2021/11/16 06:20:38;;;;;;;78.38;49.60;;;;;;;;;;5028550;28;20045;-79
2021/11/16 06:23:04;;;;;;;85.68;53.83;;;;;;;;;;5037050;28;20045;-79
2021/11/16 06:25:30;;;;;;;77.53;50.15;;;;;;;;;;5035150;28;20032;-78
2021/11/16 06:27:56;;;;;;;78.45;49.08;;;;;;;;;;5023633;28;20041;-79
2021/11/16 06:30:22;;;;;;;67.30;44.08;;;;;;;;;;5022897;28;20036;-78
2021/11/16 06:32:48;;;;;;;65.22;41.45;;;;;;;;;;5035190;28;20057;-78
2021/11/16 06:35:18;;;;;;;71.32;45.90;;;;;;;;;;5036832;28;20104;-79
2021/11/16 06:37:45;;;;;;;73.10;46.33;;;;;;;;;;5028749;28;20678;-78
2021/11/16 06:40:11;;;;;;;63.70;39.50;;;;;;;;;;5031973;28;20029;-79
2021/11/16 06:42:37;;;;;;;63.95;42.20;;;;;;;;;;5029313;28;20156;-80
2021/11/16 06:45:03;;;;;;;80.00;44.85;;;;;;;;;;5020792;28;20026;-80
2021/11/16 06:47:30;;;;;;;74.30;45.97;;;;;;;;;;5029790;28;20029;-79
2021/11/16 06:49:56;;;;;;;67.85;41.90;;;;;;;;;;5029419;28;20052;-79
2021/11/16 06:52:23;;;;;;;65.93;43.53;;;;;;;;;;5027719;28;20037;-79
2021/11/16 06:54:49;;;;;;;63.92;42.28;;;;;;;;;;5029163;28;20045;-79
2021/11/16 06:57:15;;;;;;;65.45;41.83;;;;;;;;;;5025991;28;20033;-80
2021/11/16 06:59:42;;;;;;;73.50;47.25;;;;;;;;;;5043821;28;20652;-79
2021/11/16 07:02:09;;;;;;;56.88;39.85;;;;;;;;;;5044626;28;20032;-79
2021/11/16 07:04:36;;;;;;;57.88;36.83;;;;;;;;;;5036461;28;20149;-80
2021/11/16 07:07:02;;;;;;;59.53;36.67;;;;;;;;;;5032633;28;20036;-79
2021/11/16 07:09:32;;;;;;;53.13;33.53;;;;;;;;;;5030685;28;20104;-80
2021/11/16 07:11:58;;;;;;;52.38;33.47;;;;;;;;;;5028698;28;20494;-80
2021/11/16 07:14:36;;;;;;;51.97;33.47;;;;;;;;;;5021917;28;20033;-80
2021/11/16 07:17:03;;;;;;;53.83;35.58;;;;;;;;;;5036383;28;20032;-80
2021/11/16 07:19:42;;;;;;;52.42;32.80;;;;;;;;;;5030918;28;20049;-79
2021/11/16 07:22:14;;;;;;;59.70;35.40;;;;;;;;;;5038133;28;20120;-79
2021/11/16 07:24:48;;;;;;;48.95;32.15;;;;;;;;;;5029361;28;20040;-80
2021/11/16 07:27:16;;;;;;;48.05;31.42;;;;;;;;;;5029857;28;20029;-79
2021/11/16 07:29:42;;;;;;;49.67;31.00;;;;;;;;;;5023789;28;20041;-79
2021/11/16 07:32:10;;;;;;;49.17;32.00;;;;;;;;;;5029867;28;20052;-79
2021/11/16 07:34:38;;;;;;;53.17;33.65;;;;;;;;;;5028977;28;20037;-80
2021/11/16 07:37:05;;;;;;;49.03;32.78;;;;;;;;;;5029213;28;20486;-79
2021/11/16 07:39:42;;;;;;;49.83;31.17;;;;;;;;;;5028803;28;20045;-79
2021/11/16 07:42:09;;;;;;;43.67;26.92;;;;;;;;;;5029888;28;20030;-79
2021/11/16 07:44:35;;;;;;;44.65;27.65;;;;;;;;;;5028741;28;20036;-80
2021/11/16 07:47:01;;;;;;;35.78;23.38;;;;;;;;;;5010339;28;20160;-80
2021/11/16 07:49:27;;;;;;;35.75;23.33;;;;;;;;;;5022528;28;20072;-80
2021/11/16 07:51:55;;;;;;;30.77;17.38;;;;;;;;;;5029633;28;20033;-80
2021/11/16 07:54:22;;;;;;;17.83;10.73;;;;;;;;;;5029661;28;20163;-80
2021/11/16 07:56:48;;;;;;;13.13;8.23;;;;;;;;;;5029771;28;20574;-80
2021/11/16 07:59:17;;;;;;;12.25;7.18;;;;;;;;;;5029815;28;20816;-79
2021/11/16 08:02:06;;;;;;;11.30;7.05;;;;;;;;;;5024311;28;20486;-80
2021/11/16 08:04:48;;;;;;;14.15;8.07;;;;;;;;;;5049174;28;20052;-80
2021/11/16 08:07:34;;;;;;;14.60;8.48;;;;;;;;;;5038889;28;20047;-80
2021/11/16 08:10:04;;;;;;;16.73;10.35;;;;;;;;;;5035228;28;20128;-79
2021/11/16 08:12:35;;;;;;;21.40;14.05;;;;;;;;;;5036777;28;20039;-79
2021/11/16 08:15:04;;;;;;;25.80;16.45;;;;;;;;;;5036541;28;20479;-79
2021/11/16 08:17:32;;;;;;;30.95;19.50;;;;;;;;;;5029799;28;20102;-79
2021/11/16 08:19:59;;;;;;;26.50;16.92;;;;;;;;;;5033022;28;20099;-79
2021/11/16 08:22:26;;;;;;;27.88;16.15;;;;;;;;;;5030215;28;20045;-80
2021/11/16 08:24:53;;;;;;;22.38;14.57;;;;;;;;;;5033210;28;20113;-80
2021/11/16 08:27:21;;;;;;;29.17;16.10;;;;;;;;;;5038326;28;20112;-79
2021/11/16 08:29:50;;;;;;;28.48;18.27;;;;;;;;;;5053332;28;20033;-79
2021/11/16 08:32:20;;;;;;;29.83;19.63;;;;;;;;;;5035461;28;20041;-79
2021/11/16 08:34:48;;;;;;;32.35;21.92;;;;;;;;;;5033339;28;20548;-80
2021/11/16 08:37:15;;;;;;;32.67;20.98;;;;;;;;;;5034951;28;20041;-80
2021/11/16 08:39:41;;;;;;;30.42;19.65;;;;;;;;;;5012879;28;20037;-80
2021/11/16 08:42:16;;;;;;;30.77;19.67;;;;;;;;;;5012726;28;20030;-78
2021/11/16 08:44:52;;;;;;;29.20;18.00;;;;;;;;;;5032583;28;20030;-79
2021/11/16 08:47:19;;;;;;;23.77;14.60;;;;;;;;;;5031797;28;20030;-80
2021/11/16 08:49:45;;;;;;;19.63;11.63;;;;;;;;;;5017120;28;20040;-79
2021/11/16 08:52:16;;;;;;;14.35;8.43;;;;;;;;;;5032515;28;20033;-79
2021/11/16 08:54:42;;;;;;;13.73;8.27;;;;;;;;;;5031999;28;20033;-80
2021/11/16 08:57:16;;;;;;;12.63;8.23;;;;;;;;;;5040591;28;20471;-80
2021/11/16 08:59:42;;;;;;;18.40;10.82;;;;;;;;;;5031912;28;20029;-80
2021/11/16 09:02:08;;;;;;;21.90;11.98;;;;;;;;;;5031809;28;20041;-79
2021/11/16 09:04:36;;;;;;;21.92;12.93;;;;;;;;;;5031863;28;20034;-79
2021/11/16 09:07:14;;;;;;;17.85;11.85;;;;;;;;;;5031557;28;20487;-79
2021/11/16 09:09:50;;;;;;;20.48;12.95;;;;;;;;;;5029609;28;20032;-79
2021/11/16 09:12:16;;;;;;;24.80;12.70;;;;;;;;;;5031562;28;20041;-79
2021/11/16 09:14:51;;;;;;;22.60;13.98;;;;;;;;;;5030874;28;20045;-80
2021/11/16 09:17:17;;;;;;;29.15;17.67;;;;;;;;;;5039865;28;20045;-79
2021/11/16 09:19:43;;;;;;;32.08;22.90;;;;;;;;;;5038315;28;20057;-79
2021/11/16 09:22:17;;;;;;;31.75;23.00;;;;;;;;;;5036808;28;20490;-79
2021/11/16 09:24:44;;;;;;;34.63;22.52;;;;;;;;;;5032100;28;20041;-80
2021/11/16 09:27:22;;;;;;;35.00;20.77;;;;;;;;;;5031828;28;20057;-79
2021/11/16 09:29:49;;;;;;;32.20;21.40;;;;;;;;;;5031236;28;20471;-79
2021/11/16 09:32:15;;;;;;;30.83;21.45;;;;;;;;;;5031676;28;20038;-80
2021/11/16 09:34:48;;;;;;;34.50;21.80;;;;;;;;;;5026703;28;20057;-79
2021/11/16 09:37:17;;;;;;;30.55;22.08;;;;;;;;;;5011787;28;20030;-80
2021/11/16 09:39:53;;;;;;;34.67;21.75;;;;;;;;;;5016221;28;20048;-79
2021/11/16 09:42:28;;;;;;;36.13;22.98;;;;;;;;;;5031340;28;20033;-79
2021/11/16 09:44:57;;;;;;;31.58;23.77;;;;;;;;;;5031281;28;20043;-79
2021/11/16 09:47:28;;;;;;;33.35;23.88;;;;;;;;;;5040835;28;20030;-79
2021/11/16 09:49:56;;;;;;;37.45;24.52;;;;;;;;;;5034084;28;20026;-79
2021/11/16 09:52:22;;;;;;;23.67;16.17;;;;;;;;;;5027380;28;20037;-79
2021/11/16 09:54:50;;;;;;;23.33;16.02;;;;;;;;;;5031385;28;20088;-78
2021/11/16 09:57:19;;;;;;;22.17;14.82;;;;;;;;;;5045423;28;20044;-79
2021/11/16 09:59:46;;;;;;;24.17;14.43;;;;;;;;;;5036473;28;20574;-78
2021/11/16 10:02:39;;;;;;;21.52;14.13;;;;;;;;;;5035974;28;20033;-79
2021/11/16 10:05:07;;;;;;;18.67;12.50;;;;;;;;;;5014402;28;20407;-79
2021/11/16 10:07:36;;;;;;;21.52;14.10;;;;;;;;;;5028825;28;20037;-79
2021/11/16 10:10:04;;;;;;;20.83;13.02;;;;;;;;;;5011282;28;20038;-79
2021/11/16 10:12:41;;;;;;;20.10;13.63;;;;;;;;;;5032065;28;20080;-79
2021/11/16 10:15:07;;;;;;;19.65;13.32;;;;;;;;;;5025946;28;20061;-79
2021/11/16 10:17:33;;;;;;;17.23;12.10;;;;;;;;;;5030554;28;20482;-79
2021/11/16 10:20:00;;;;;;;18.65;12.43;;;;;;;;;;5029808;28;20057;-79
2021/11/16 10:22:28;;;;;;;19.77;12.68;;;;;;;;;;5030498;28;20048;-79
2021/11/16 10:25:08;;;;;;;17.40;11.63;;;;;;;;;;5030254;28;20068;-79
2021/11/16 10:27:35;;;;;;;18.20;11.27;;;;;;;;;;5039124;28;20569;-79
2021/11/16 10:30:07;;;;;;;17.42;11.32;;;;;;;;;;5029714;28;20084;-79
2021/11/16 10:32:33;;;;;;;18.55;12.60;;;;;;;;;;5035651;28;20041;-79
2021/11/16 10:35:10;;;;;;;18.38;12.43;;;;;;;;;;5022844;28;20034;-79
2021/11/16 10:37:53;;;;;;;18.00;13.23;;;;;;;;;;5025097;28;20041;-79
2021/11/16 10:40:21;;;;;;;19.25;12.38;;;;;;;;;;5029656;28;20060;-78
2021/11/16 10:42:48;;;;;;;17.52;11.02;;;;;;;;;;5030339;28;20037;-79
2021/11/16 10:45:15;;;;;;;18.98;12.27;;;;;;;;;;5029485;28;20478;-79
2021/11/16 10:47:41;;;;;;;16.15;11.23;;;;;;;;;;5029900;28;20029;-79
2021/11/16 10:50:12;;;;;;;16.65;11.25;;;;;;;;;;5029704;28;20022;-79
2021/11/16 10:52:38;;;;;;;16.60;10.45;;;;;;;;;;5034857;28;20395;-79
2021/11/16 10:55:06;;;;;;;17.83;11.50;;;;;;;;;;5034650;28;20036;-79
2021/11/16 10:58:05;;;;;;;17.60;11.93;;;;;;;;;;5039925;28;20075;-79
2021/11/16 11:00:32;;;;;;;16.42;10.95;;;;;;;;;;5007582;28;20402;-79
2021/11/16 11:03:17;;;;;;;17.35;10.65;;;;;;;;;;5046642;28;20055;-79
2021/11/16 11:05:45;;;;;;;17.90;10.93;;;;;;;;;;5014882;28;20048;-79
2021/11/16 11:08:12;;;;;;;16.35;10.07;;;;;;;;;;5029887;28;20022;-78
2021/11/16 11:10:45;;;;;;;14.02;10.23;;;;;;;;;;5029256;28;20436;-79
2021/11/16 11:13:26;;;;;;;18.70;11.02;;;;;;;;;;5034085;28;20041;-79
2021/11/16 11:15:52;;;;;;;17.55;10.45;;;;;;;;;;5041755;28;20671;-79
2021/11/16 11:18:38;;;;;;;21.23;12.18;;;;;;;;;;5049643;28;20041;-79
2021/11/16 11:21:24;;;;;;;18.90;12.23;;;;;;;;;;5046133;28;20075;-79
2021/11/16 11:23:54;;;;;;;16.90;10.95;;;;;;;;;;5002319;28;20419;-79
2021/11/16 11:29:18;;;;;;;16.95;11.05;;;;;;;;;;5029964;28;20128;-79
2021/11/16 11:31:45;;;;;;;21.23;13.45;;;;;;;;;;5030973;28;20029;-79
2021/11/16 11:34:12;;;;;;;19.45;12.10;;;;;;;;;;5029645;28;20041;-79
2021/11/16 11:36:38;;;;;;;21.85;12.50;;;;;;;;;;5032121;28;20036;-79
2021/11/16 11:39:22;;;;;;;16.70;10.50;;;;;;;;;;5039372;28;20483;-79
2021/11/16 11:41:53;;;;;;;19.92;12.00;;;;;;;;;;5025159;28;20487;-79
2021/11/16 11:44:20;;;;;;;16.42;11.70;;;;;;;;;;5029408;28;20030;-79
2021/11/16 11:46:50;;;;;;;18.42;11.80;;;;;;;;;;5029401;28;20125;-79
2021/11/16 11:49:17;;;;;;;15.77;11.15;;;;;;;;;;5029278;28;20065;-79
2021/11/16 11:51:43;;;;;;;17.55;11.15;;;;;;;;;;5028819;28;20099;-79
2021/11/16 11:54:10;;;;;;;16.88;10.60;;;;;;;;;;5028732;28;20029;-79
2021/11/16 11:56:36;;;;;;;15.48;10.40;;;;;;;;;;5034672;28;20042;-79
2021/11/16 11:59:02;;;;;;;18.52;11.48;;;;;;;;;;5026702;28;20057;-79
2021/11/16 12:01:29;;;;;;;17.88;11.20;;;;;;;;;;5036913;28;20072;-79
2021/11/16 12:03:56;;;;;;;23.17;11.90;;;;;;;;;;5029850;28;20033;-79
2021/11/16 12:06:26;;;;;;;17.02;12.45;;;;;;;;;;5035664;28;20029;-79
2021/11/16 12:08:53;;;;;;;18.65;11.60;;;;;;;;;;5030136;28;20083;-79
2021/11/16 12:11:19;;;;;;;18.13;11.35;;;;;;;;;;5029183;28;20029;-79
2021/11/16 12:13:47;;;;;;;17.40;11.70;;;;;;;;;;5021139;28;20045;-79
2021/11/16 12:16:13;;;;;;;16.80;11.20;;;;;;;;;;5029340;28;20117;-78
2021/11/16 12:18:41;;;;;;;15.98;10.48;;;;;;;;;;5029160;28;20124;-79
2021/11/16 12:21:25;;;;;;;14.80;10.45;;;;;;;;;;5028870;28;20068;-78
2021/11/16 12:23:56;;;;;;;15.05;9.38;;;;;;;;;;5020597;28;20037;-79
2021/11/16 12:26:22;;;;;;;15.52;10.00;;;;;;;;;;5028679;28;20457;-79
2021/11/16 12:28:48;;;;;;;15.85;10.98;;;;;;;;;;5039966;28;20043;-79
2021/11/16 12:31:29;;;;;;;19.20;11.85;;;;;;;;;;5045911;28;20029;-79
2021/11/16 12:33:57;;;;;;;18.33;10.38;;;;;;;;;;5033482;28;20033;-78
2021/11/16 12:36:29;;;;;;;15.82;10.40;;;;;;;;;;5030603;28;20026;-79
2021/11/16 12:38:56;;;;;;;17.15;9.77;;;;;;;;;;5028845;28;20121;-79
2021/11/16 12:41:33;;;;;;;18.45;10.65;;;;;;;;;;5019831;28;20033;-79
2021/11/16 12:44:04;;;;;;;15.77;10.15;;;;;;;;;;5032678;28;20107;-79
2021/11/16 12:46:32;;;;;;;14.38;10.18;;;;;;;;;;5036965;28;20041;-79
2021/11/16 12:48:59;;;;;;;14.15;10.27;;;;;;;;;;5042134;28;20455;-79
2021/11/16 12:51:29;;;;;;;13.82;9.10;;;;;;;;;;5031991;28;20040;-79
2021/11/16 12:54:00;;;;;;;13.95;9.23;;;;;;;;;;5031814;28;20075;-78
2021/11/16 12:56:53;;;;;;;13.93;9.65;;;;;;;;;;5032217;28;20040;-79
2021/11/16 12:59:20;;;;;;;23.65;10.35;;;;;;;;;;5015540;28;20053;-79
2021/11/16 13:01:48;;;;;;;16.00;10.10;;;;;;;;;;5031390;28;20359;-79
2021/11/16 13:04:16;;;;;;;13.85;9.60;;;;;;;;;;5043600;28;20112;-79
2021/11/16 13:06:43;;;;;;;13.90;9.23;;;;;;;;;;5032073;28;20033;-79
2021/11/16 13:09:10;;;;;;;12.75;8.73;;;;;;;;;;5032132;28;20108;-79
2021/11/16 13:11:45;;;;;;;14.93;9.52;;;;;;;;;;5037803;28;20033;-78
2021/11/16 13:14:12;;;;;;;15.15;9.50;;;;;;;;;;5040253;28;20037;-79
2021/11/16 13:16:38;;;;;;;14.20;9.52;;;;;;;;;;5026218;28;20040;-79
2021/11/16 13:19:05;;;;;;;16.75;10.27;;;;;;;;;;5051786;28;20041;-79
2021/11/16 13:21:37;;;;;;;16.15;10.05;;;;;;;;;;5036837;28;20029;-79
2021/11/16 13:24:04;;;;;;;19.50;11.45;;;;;;;;;;5033358;28;20041;-79
2021/11/16 13:26:35;;;;;;;16.48;10.45;;;;;;;;;;5041846;28;20099;-79
2021/11/16 13:31:35;;;;;;;15.35;9.93;;;;;;;;;;5031948;28;20037;-78
2021/11/16 13:34:02;;;;;;;16.23;9.98;;;;;;;;;;5042097;28;20529;-78
2021/11/16 13:36:34;;;;;;;23.88;9.98;;;;;;;;;;5042103;28;20032;-79
2021/11/16 13:39:00;;;;;;;17.85;11.07;;;;;;;;;;5033496;28;20037;-79
2021/11/16 13:41:41;;;;;;;16.88;9.82;;;;;;;;;;5040911;28;20115;-79
2021/11/16 13:44:27;;;;;;;20.02;9.45;;;;;;;;;;5035239;28;20037;-79
2021/11/16 13:46:55;;;;;;;15.73;9.23;;;;;;;;;;5019729;28;20109;-79
2021/11/16 13:49:29;;;;;;;15.88;9.93;;;;;;;;;;5029617;28;20110;-79
2021/11/16 13:52:01;;;;;;;21.02;10.23;;;;;;;;;;5039107;28;20138;-79
2021/11/16 13:54:30;;;;;;;19.15;9.73;;;;;;;;;;5034343;28;20082;-79
2021/11/16 13:57:03;;;;;;;21.00;11.32;;;;;;;;;;5036395;28;20069;-79
2021/11/16 13:59:30;;;;;;;23.45;12.95;;;;;;;;;;5030413;28;20409;-79
2021/11/16 14:02:00;;;;;;;23.08;12.13;;;;;;;;;;5029976;28;20043;-78
2021/11/16 14:04:26;;;;;;;15.38;10.40;;;;;;;;;;5033449;28;20041;-79
2021/11/16 14:06:52;;;;;;;19.70;11.20;;;;;;;;;;5042138;28;20105;-79
2021/11/16 14:09:23;;;;;;;13.90;9.27;;;;;;;;;;5034768;28;20554;-79
2021/11/16 14:11:50;;;;;;;13.48;8.05;;;;;;;;;;5041718;28;20032;-79
2021/11/16 14:14:16;;;;;;;14.10;9.43;;;;;;;;;;5050437;28;20072;-79
2021/11/16 14:16:42;;;;;;;14.18;9.30;;;;;;;;;;5035833;28;20032;-79
2021/11/16 14:19:09;;;;;;;14.80;9.18;;;;;;;;;;5029858;28;20124;-79
2021/11/16 14:21:36;;;;;;;18.98;9.80;;;;;;;;;;5030828;28;20026;-79
2021/11/16 14:24:02;;;;;;;15.75;9.02;;;;;;;;;;5033052;28;20131;-79
2021/11/16 14:26:29;;;;;;;16.77;9.90;;;;;;;;;;5030405;28;20112;-79
2021/11/16 14:28:55;;;;;;;13.48;8.45;;;;;;;;;;5030348;28;20033;-79
2021/11/16 14:31:23;;;;;;;15.07;9.25;;;;;;;;;;5030646;28;20383;-79
2021/11/16 14:33:51;;;;;;;14.82;9.85;;;;;;;;;;5030445;28;20851;-79
2021/11/16 14:36:18;;;;;;;15.25;9.02;;;;;;;;;;5029834;28;20034;-78
2021/11/16 14:38:46;;;;;;;15.15;9.80;;;;;;;;;;5043120;28;20112;-79
2021/11/16 14:41:27;;;;;;;17.55;10.20;;;;;;;;;;5030449;28;20033;-79
2021/11/16 14:44:01;;;;;;;17.08;10.10;;;;;;;;;;5030487;28;20025;-78
2021/11/16 14:46:27;;;;;;;16.33;9.05;;;;;;;;;;5029954;28;20026;-78
2021/11/16 14:48:57;;;;;;;18.52;9.35;;;;;;;;;;5044980;28;20474;-78